Time;durP1;ratioP1;P1;durP2;ratioP2;P2;SDS_P1;SDS_P2;PMS_P1;PMS_P2;Temp;Humidity;BMP_temperature;BMP_pressure;BME280_temperature;BME280_humidity;BME280_pressure;Samples;Min_cycle;Max_cycle;Signal;HPM_P1;HPM_P2
2021/09/16 00:00:48;;;;;;;;;7.33;5.67;;;;;;;;5052267;28;45651;-84
2021/09/16 00:03:13;;;;;;;;;6.50;5.25;;;;;;;;5052102;28;45481;-84
2021/09/16 00:05:39;;;;;;;;;6.00;5.67;;;;;;;;5051670;28;45999;-84
2021/09/16 00:08:04;;;;;;;;;8.00;6.00;;;;;;;;5034193;28;45488;-84
2021/09/16 00:10:29;;;;;;;;;8.67;5.33;;;;;;;;5026326;28;46126;-84
2021/09/16 00:12:54;;;;;;;;;5.00;5.00;;;;;;;;5052918;28;45546;-84
2021/09/16 00:15:19;;;;;;;;;7.25;7.00;;;;;;;;5055626;28;45407;-84
2021/09/16 00:17:45;;;;;;;;;6.00;6.00;;;;;;;;5055587;28;45431;-84
2021/09/16 00:20:10;;;;;;;;;5.33;5.33;;;;;;;;5055524;28;45506;-84
2021/09/16 00:22:35;;;;;;;;;7.50;6.00;;;;;;;;5055641;28;45961;-84
2021/09/16 00:25:01;;;;;;;;;5.00;5.00;;;;;;;;5055646;28;45508;-84
2021/09/16 00:27:26;;;;;;;;;6.00;5.00;;;;;;;;5055324;28;45508;-83
2021/09/16 00:29:51;;;;;;;;;7.67;6.00;;;;;;;;5056132;28;46701;-84
2021/09/16 00:32:17;;;;;;;;;5.00;4.67;;;;;;;;5055453;28;45394;-85
2021/09/16 00:34:42;;;;;;;;;5.33;5.33;;;;;;;;5037035;28;46134;-84
2021/09/16 00:37:07;;;;;;;;;8.33;6.00;;;;;;;;5055345;28;45385;-84
2021/09/16 00:39:33;;;;;;;;;7.75;5.75;;;;;;;;5054856;28;45839;-84
2021/09/16 00:41:58;;;;;;;;;8.00;7.25;;;;;;;;5056155;28;45531;-84
2021/09/16 00:44:23;;;;;;;;;7.33;6.00;;;;;;;;5055199;28;45597;-84
2021/09/16 00:46:49;;;;;;;;;6.33;6.33;;;;;;;;5054946;28;45593;-84
2021/09/16 00:49:14;;;;;;;;;7.00;5.25;;;;;;;;5056232;28;45513;-84
2021/09/16 00:51:43;;;;;;;;;6.00;6.00;;;;;;;;5053575;28;45474;-84
2021/09/16 00:54:10;;;;;;;;;8.75;7.25;;;;;;;;5053035;28;46124;-83
2021/09/16 00:56:37;;;;;;;;;6.75;6.00;;;;;;;;5033388;28;46081;-84
2021/09/16 00:59:04;;;;;;;;;9.00;6.50;;;;;;;;5057576;28;45630;-84
2021/09/16 01:01:29;;;;;;;;;8.25;6.75;;;;;;;;5053696;28;45764;-84
2021/09/16 01:03:56;;;;;;;;;5.75;5.75;;;;;;;;5054508;28;46196;-84
2021/09/16 01:06:22;;;;;;;;;7.25;6.75;;;;;;;;5053552;28;45436;-84
2021/09/16 01:08:47;;;;;;;;;9.75;9.00;;;;;;;;5030278;28;45382;-83
2021/09/16 01:11:13;;;;;;;;;6.25;6.25;;;;;;;;5054622;28;46850;-84
2021/09/16 01:13:38;;;;;;;;;8.00;8.00;;;;;;;;5053723;28;45593;-84
2021/09/16 01:16:03;;;;;;;;;7.00;7.00;;;;;;;;5037011;28;45712;-84
2021/09/16 01:18:29;;;;;;;;;8.00;8.00;;;;;;;;5054668;28;45287;-84
2021/09/16 01:20:54;;;;;;;;;10.25;8.50;;;;;;;;5054662;28;45616;-84
2021/09/16 01:23:21;;;;;;;;;9.33;7.33;;;;;;;;5054673;28;46177;-84
2021/09/16 01:25:46;;;;;;;;;7.50;7.00;;;;;;;;5052966;28;46079;-84
2021/09/16 01:28:11;;;;;;;;;8.67;7.00;;;;;;;;5055470;28;45457;-84
2021/09/16 01:30:37;;;;;;;;;6.33;5.33;;;;;;;;5033869;28;45765;-84
2021/09/16 01:33:02;;;;;;;;;11.00;9.75;;;;;;;;5054642;28;45450;-84
2021/09/16 01:35:28;;;;;;;;;8.67;6.67;;;;;;;;5053558;28;46431;-84
2021/09/16 01:37:54;;;;;;;;;8.00;7.25;;;;;;;;5054138;28;45617;-84
2021/09/16 01:40:19;;;;;;;;;10.25;7.25;;;;;;;;5054534;28;45567;-84
2021/09/16 01:42:45;;;;;;;;;8.00;7.33;;;;;;;;5036253;28;47177;-84
2021/09/16 01:45:14;;;;;;;;;8.75;7.25;;;;;;;;5050393;28;45537;-84
2021/09/16 01:47:40;;;;;;;;;7.75;7.75;;;;;;;;5054448;28;45542;-84
2021/09/16 01:50:06;;;;;;;;;4.75;4.75;;;;;;;;5054760;28;45465;-83
2021/09/16 01:52:31;;;;;;;;;8.25;8.00;;;;;;;;5053391;28;46034;-84
2021/09/16 01:54:56;;;;;;;;;12.00;9.67;;;;;;;;5054687;28;45533;-84
2021/09/16 01:57:21;;;;;;;;;7.00;7.00;;;;;;;;5054138;28;45485;-84
2021/09/16 01:59:46;;;;;;;;;8.00;7.00;;;;;;;;5056597;28;45331;-84
2021/09/16 02:02:11;;;;;;;;;9.00;9.00;;;;;;;;5056484;28;45458;-84
2021/09/16 02:04:37;;;;;;;;;12.00;7.67;;;;;;;;5053790;28;45468;-84
2021/09/16 02:07:02;;;;;;;;;8.33;6.00;;;;;;;;5054775;28;45402;-84
2021/09/16 02:09:27;;;;;;;;;8.75;7.50;;;;;;;;5033555;28;45632;-84
2021/09/16 02:11:52;;;;;;;;;6.00;6.00;;;;;;;;5054080;28;46603;-84
2021/09/16 02:14:18;;;;;;;;;8.33;7.00;;;;;;;;5053502;28;45505;-84
2021/09/16 02:16:43;;;;;;;;;11.33;9.33;;;;;;;;5053120;28;45591;-84
2021/09/16 02:19:08;;;;;;;;;7.67;7.67;;;;;;;;5030269;28;45602;-84
2021/09/16 02:21:33;;;;;;;;;5.67;5.67;;;;;;;;5052445;28;45502;-84
2021/09/16 02:24:00;;;;;;;;;10.00;7.33;;;;;;;;5035250;28;45489;-84
2021/09/16 02:26:25;;;;;;;;;6.50;6.25;;;;;;;;5053865;28;45420;-84
2021/09/16 02:28:50;;;;;;;;;6.00;6.00;;;;;;;;5053148;28;45463;-84
2021/09/16 02:31:15;;;;;;;;;8.00;8.00;;;;;;;;5054070;28;46845;-84
2021/09/16 02:33:40;;;;;;;;;8.00;7.00;;;;;;;;5033468;28;45505;-84
2021/09/16 02:36:06;;;;;;;;;7.67;7.67;;;;;;;;5053634;28;45447;-83
2021/09/16 02:38:31;;;;;;;;;11.00;7.50;;;;;;;;5053906;28;45501;-84
2021/09/16 02:40:56;;;;;;;;;8.33;8.33;;;;;;;;5052966;28;46100;-85
2021/09/16 02:43:22;;;;;;;;;8.33;7.00;;;;;;;;5053096;28;45455;-84
2021/09/16 02:45:47;;;;;;;;;10.25;7.00;;;;;;;;5053494;28;45504;-84
2021/09/16 02:48:12;;;;;;;;;9.33;6.00;;;;;;;;5052657;28;45276;-84
2021/09/16 02:50:37;;;;;;;;;6.25;6.00;;;;;;;;5053094;28;45317;-84
2021/09/16 02:53:03;;;;;;;;;8.00;6.00;;;;;;;;5031020;28;45455;-84
2021/09/16 02:55:28;;;;;;;;;6.25;6.25;;;;;;;;5036750;28;45522;-84
2021/09/16 02:57:53;;;;;;;;;6.00;5.33;;;;;;;;5053957;28;45848;-84
2021/09/16 03:00:18;;;;;;;;;7.33;7.33;;;;;;;;5052604;28;45598;-84
2021/09/16 03:02:44;;;;;;;;;10.33;5.67;;;;;;;;5055413;28;45482;-84
2021/09/16 03:05:09;;;;;;;;;5.00;5.00;;;;;;;;5056265;28;45494;-84
2021/09/16 03:07:34;;;;;;;;;6.75;6.25;;;;;;;;5056626;28;45447;-84
2021/09/16 03:09:59;;;;;;;;;6.00;6.00;;;;;;;;5055084;28;46164;-84
2021/09/16 03:12:24;;;;;;;;;7.33;7.00;;;;;;;;5053125;28;45498;-84
2021/09/16 03:14:50;;;;;;;;;6.00;6.00;;;;;;;;5053855;28;45423;-84
2021/09/16 03:17:15;;;;;;;;;8.00;7.00;;;;;;;;5052553;28;45505;-84
2021/09/16 03:19:40;;;;;;;;;10.00;7.67;;;;;;;;5030297;28;50606;-84
2021/09/16 03:22:05;;;;;;;;;10.50;8.00;;;;;;;;5053745;28;45357;-84
2021/09/16 03:24:31;;;;;;;;;6.33;6.33;;;;;;;;5030435;28;45539;-84
2021/09/16 03:26:56;;;;;;;;;6.33;6.00;;;;;;;;5034173;28;45663;-84
2021/09/16 03:29:21;;;;;;;;;9.33;6.33;;;;;;;;5052533;28;46278;-84
2021/09/16 03:31:46;;;;;;;;;8.00;6.33;;;;;;;;5036208;28;45541;-85
2021/09/16 03:34:11;;;;;;;;;14.33;7.67;;;;;;;;5053581;28;45303;-85
2021/09/16 03:36:37;;;;;;;;;8.67;7.67;;;;;;;;5053206;28;45634;-84
2021/09/16 03:39:02;;;;;;;;;6.75;6.50;;;;;;;;5051557;28;45565;-84
2021/09/16 03:41:27;;;;;;;;;9.33;9.00;;;;;;;;5033318;28;45580;-84
2021/09/16 03:43:53;;;;;;;;;7.00;7.00;;;;;;;;5052761;28;45489;-84
2021/09/16 03:46:18;;;;;;;;;10.50;7.00;;;;;;;;5052040;28;45469;-84
2021/09/16 03:48:43;;;;;;;;;10.00;7.00;;;;;;;;5033979;28;47392;-84
2021/09/16 03:51:09;;;;;;;;;11.00;7.67;;;;;;;;5050425;28;45600;-84
2021/09/16 03:53:34;;;;;;;;;8.33;7.33;;;;;;;;5052382;28;45497;-84
2021/09/16 03:55:59;;;;;;;;;7.33;7.00;;;;;;;;5028843;28;45510;-84
2021/09/16 03:58:25;;;;;;;;;10.00;8.00;;;;;;;;5052108;28;46167;-84
2021/09/16 04:00:50;;;;;;;;;7.00;7.00;;;;;;;;5049211;28;45561;-84
2021/09/16 04:03:15;;;;;;;;;6.33;6.33;;;;;;;;5033100;28;45581;-84
2021/09/16 04:05:41;;;;;;;;;8.00;7.33;;;;;;;;5052560;28;45379;-84
2021/09/16 04:08:06;;;;;;;;;11.33;8.33;;;;;;;;5053003;28;45426;-84
2021/09/16 04:10:31;;;;;;;;;9.50;7.00;;;;;;;;5050708;28;45487;-84
2021/09/16 04:12:57;;;;;;;;;8.50;7.25;;;;;;;;5052993;28;45585;-84
2021/09/16 04:15:22;;;;;;;;;9.67;8.00;;;;;;;;5051789;28;45428;-84
2021/09/16 04:17:47;;;;;;;;;10.00;6.67;;;;;;;;5051589;28;45531;-84
2021/09/16 04:20:13;;;;;;;;;7.25;6.25;;;;;;;;5027657;28;45504;-84
2021/09/16 04:22:38;;;;;;;;;8.75;8.00;;;;;;;;5052034;28;46282;-84
2021/09/16 04:25:03;;;;;;;;;6.33;6.33;;;;;;;;5053426;28;45457;-84
2021/09/16 04:27:28;;;;;;;;;8.25;8.25;;;;;;;;5029603;28;46119;-83
2021/09/16 04:29:54;;;;;;;;;7.33;5.67;;;;;;;;5051390;28;45573;-84
2021/09/16 04:32:19;;;;;;;;;6.67;6.67;;;;;;;;5027574;28;45408;-84
2021/09/16 04:34:44;;;;;;;;;10.00;8.00;;;;;;;;5051831;28;45391;-84
2021/09/16 04:37:09;;;;;;;;;9.67;8.00;;;;;;;;5052543;28;46257;-84
2021/09/16 04:39:35;;;;;;;;;9.75;9.25;;;;;;;;5051305;28;45430;-84
2021/09/16 04:42:00;;;;;;;;;10.00;8.67;;;;;;;;5051400;28;45747;-84
2021/09/16 04:44:25;;;;;;;;;12.25;9.00;;;;;;;;5051580;28;45586;-84
2021/09/16 04:46:50;;;;;;;;;9.00;8.00;;;;;;;;5051467;28;45463;-84
2021/09/16 04:49:15;;;;;;;;;9.00;7.67;;;;;;;;5052900;28;45538;-84
2021/09/16 04:51:41;;;;;;;;;10.67;10.33;;;;;;;;5051184;28;45321;-85
2021/09/16 04:54:07;;;;;;;;;11.67;9.33;;;;;;;;5051199;28;45506;-84
2021/09/16 04:56:33;;;;;;;;;11.75;11.25;;;;;;;;5050602;28;46032;-84
2021/09/16 04:58:58;;;;;;;;;9.25;6.75;;;;;;;;5051009;28;45669;-84
2021/09/16 05:01:23;;;;;;;;;10.33;10.00;;;;;;;;5029923;28;46205;-84
2021/09/16 05:03:48;;;;;;;;;12.33;10.33;;;;;;;;5055909;28;45360;-84
2021/09/16 05:06:14;;;;;;;;;10.67;8.00;;;;;;;;5054170;28;46316;-84
2021/09/16 05:08:40;;;;;;;;;11.33;10.67;;;;;;;;5056043;28;45464;-84
2021/09/16 05:11:06;;;;;;;;;10.75;10.75;;;;;;;;5057385;28;45652;-84
2021/09/16 05:13:31;;;;;;;;;11.00;10.25;;;;;;;;5054573;28;45577;-83
2021/09/16 05:15:56;;;;;;;;;13.67;9.00;;;;;;;;5055165;28;45502;-84
2021/09/16 05:18:21;;;;;;;;;11.75;9.00;;;;;;;;5053897;28;45414;-84
2021/09/16 05:20:47;;;;;;;;;13.25;9.00;;;;;;;;5054926;28;45537;-83
2021/09/16 05:23:12;;;;;;;;;12.00;12.00;;;;;;;;5054988;28;45297;-84
2021/09/16 05:25:37;;;;;;;;;12.50;10.00;;;;;;;;5054578;28;45450;-84
2021/09/16 05:28:03;;;;;;;;;11.50;9.50;;;;;;;;5055265;28;45415;-84
2021/09/16 05:30:28;;;;;;;;;10.50;8.75;;;;;;;;5053888;28;45506;-84
2021/09/16 05:32:53;;;;;;;;;8.75;8.75;;;;;;;;5053945;28;45475;-84
2021/09/16 05:35:19;;;;;;;;;8.00;8.00;;;;;;;;5054777;28;46270;-85
2021/09/16 05:37:44;;;;;;;;;11.50;10.00;;;;;;;;5050547;28;45532;-84
2021/09/16 05:40:10;;;;;;;;;10.33;8.33;;;;;;;;5049771;28;45399;-84
2021/09/16 05:42:36;;;;;;;;;17.50;11.00;;;;;;;;5042906;28;45471;-84
2021/09/16 05:45:02;;;;;;;;;13.25;10.75;;;;;;;;5040961;28;45306;-84
2021/09/16 05:47:27;;;;;;;;;13.25;12.25;;;;;;;;5052058;28;48894;-83
2021/09/16 05:49:52;;;;;;;;;11.67;11.00;;;;;;;;5036415;28;45502;-84
2021/09/16 05:52:17;;;;;;;;;9.33;9.33;;;;;;;;5042818;28;46830;-84
2021/09/16 05:54:43;;;;;;;;;13.00;11.75;;;;;;;;5048645;28;46452;-85
2021/09/16 05:57:08;;;;;;;;;10.67;10.67;;;;;;;;5047526;28;46596;-84
2021/09/16 05:59:33;;;;;;;;;9.67;8.67;;;;;;;;5054425;28;45258;-84
2021/09/16 06:01:58;;;;;;;;;11.00;11.00;;;;;;;;5055151;28;45584;-84
2021/09/16 06:04:24;;;;;;;;;9.75;8.50;;;;;;;;5054651;28;45467;-84
2021/09/16 06:06:50;;;;;;;;;10.75;9.00;;;;;;;;5055870;28;45463;-84
2021/09/16 06:09:15;;;;;;;;;10.75;10.75;;;;;;;;5054864;28;45545;-84
2021/09/16 06:11:40;;;;;;;;;12.50;9.50;;;;;;;;5054304;28;45712;-84
2021/09/16 06:14:05;;;;;;;;;12.33;11.33;;;;;;;;5055461;28;45418;-84
2021/09/16 06:16:31;;;;;;;;;10.00;10.00;;;;;;;;5054601;28;45478;-84
2021/09/16 06:18:56;;;;;;;;;14.50;10.25;;;;;;;;5053444;28;45521;-84
2021/09/16 06:21:21;;;;;;;;;12.75;11.00;;;;;;;;5055263;28;45372;-84
2021/09/16 06:23:46;;;;;;;;;11.00;10.00;;;;;;;;5051435;28;46115;-84
2021/09/16 06:26:12;;;;;;;;;14.67;10.33;;;;;;;;5025280;28;45504;-85
2021/09/16 06:28:37;;;;;;;;;16.00;11.67;;;;;;;;5037721;28;45443;-84
2021/09/16 06:31:02;;;;;;;;;12.33;10.67;;;;;;;;5041592;28;45348;-84
2021/09/16 06:33:28;;;;;;;;;9.25;9.25;;;;;;;;5049755;28;45578;-83
2021/09/16 06:35:53;;;;;;;;;11.67;11.00;;;;;;;;5050516;28;45435;-84
2021/09/16 06:38:18;;;;;;;;;15.00;11.50;;;;;;;;5052191;28;45257;-84
2021/09/16 06:40:44;;;;;;;;;11.50;10.75;;;;;;;;5052072;28;45273;-67
2021/09/16 06:43:09;;;;;;;;;16.00;10.33;;;;;;;;5038494;28;46152;-67
2021/09/16 06:45:34;;;;;;;;;11.25;10.50;;;;;;;;5050970;28;45350;-67
2021/09/16 06:47:59;;;;;;;;;12.50;12.25;;;;;;;;5052984;28;45470;-67
2021/09/16 06:50:25;;;;;;;;;12.33;10.67;;;;;;;;5050950;28;45262;-67
2021/09/16 06:52:50;;;;;;;;;12.50;10.50;;;;;;;;5051769;28;46613;-66
2021/09/16 06:55:15;;;;;;;;;12.25;10.75;;;;;;;;5049720;28;45277;-68
2021/09/16 06:57:41;;;;;;;;;10.25;9.50;;;;;;;;5049936;28;45589;-68
2021/09/16 07:00:07;;;;;;;;;10.75;10.75;;;;;;;;5050669;28;46357;-66
2021/09/16 07:02:32;;;;;;;;;9.75;9.75;;;;;;;;5053316;28;45948;-66
2021/09/16 07:04:57;;;;;;;;;17.00;12.00;;;;;;;;5053630;28;45717;-72
2021/09/16 07:07:22;;;;;;;;;9.00;8.00;;;;;;;;5053895;28;45385;-70
2021/09/16 07:09:48;;;;;;;;;12.00;9.00;;;;;;;;5052124;28;45757;-68
2021/09/16 07:12:13;;;;;;;;;13.00;10.25;;;;;;;;5057721;28;45479;-70
2021/09/16 07:14:40;;;;;;;;;14.33;13.33;;;;;;;;5054312;28;45451;-68
2021/09/16 07:17:05;;;;;;;;;12.75;10.00;;;;;;;;5054006;28;45360;-74
2021/09/16 07:19:31;;;;;;;;;13.50;11.75;;;;;;;;5054771;28;45340;-81
2021/09/16 07:21:56;;;;;;;;;17.00;13.50;;;;;;;;5054110;28;45403;-81
2021/09/16 07:24:21;;;;;;;;;15.25;12.75;;;;;;;;5034521;28;45498;-81
2021/09/16 07:26:50;;;;;;;;;14.00;10.50;;;;;;;;5036071;28;45541;-82
2021/09/16 07:29:20;;;;;;;;;15.00;11.75;;;;;;;;5045375;28;45477;-80
2021/09/16 07:31:45;;;;;;;;;11.75;10.75;;;;;;;;5044649;28;45456;-80
2021/09/16 07:34:10;;;;;;;;;10.75;9.25;;;;;;;;5053168;28;45396;-80
2021/09/16 07:36:36;;;;;;;;;15.00;11.50;;;;;;;;5053391;28;45643;-81
2021/09/16 07:39:01;;;;;;;;;11.75;9.25;;;;;;;;5053095;28;45387;-81
2021/09/16 07:58:48;;;;;;;;;12.50;11.50;;;;;;;;5123038;27;45753;-79
2021/09/16 08:01:13;;;;;;;;;12.50;9.50;;;;;;;;5099001;27;46182;-80
2021/09/16 08:03:39;;;;;;;;;13.75;8.50;;;;;;;;5110492;27;45533;-79
2021/09/16 08:06:04;;;;;;;;;13.75;8.75;;;;;;;;5109527;27;45537;-79
2021/09/16 08:08:30;;;;;;;;;8.00;8.00;;;;;;;;5110468;27;45542;-79
2021/09/16 08:10:55;;;;;;;;;8.75;8.00;;;;;;;;5118157;27;45504;-78
2021/09/16 08:13:21;;;;;;;;;8.00;7.00;;;;;;;;5107042;27;45549;-80
2021/09/16 08:15:46;;;;;;;;;7.75;6.25;;;;;;;;5108117;27;45485;-82
2021/09/16 08:18:11;;;;;;;;;5.00;5.00;;;;;;;;5109807;27;45433;-81
2021/09/16 08:20:42;;;;;;;;;4.00;3.33;;;;;;;;5122522;27;45863;-82
2021/09/16 08:23:07;;;;;;;;;5.00;4.50;;;;;;;;5107128;27;45609;-80
2021/09/16 08:25:33;;;;;;;;;4.00;3.00;;;;;;;;5091492;27;45799;-83
2021/09/16 08:27:58;;;;;;;;;5.00;3.25;;;;;;;;5109278;27;45937;-80
2021/09/16 08:30:23;;;;;;;;;3.00;3.00;;;;;;;;5106903;27;46060;-79
2021/09/16 08:32:49;;;;;;;;;3.25;3.00;;;;;;;;5113397;27;45610;-80
2021/09/16 08:35:14;;;;;;;;;2.00;2.00;;;;;;;;5109480;27;45422;-80
2021/09/16 08:37:39;;;;;;;;;2.25;1.00;;;;;;;;5102981;27;46091;-79
2021/09/16 08:40:06;;;;;;;;;1.00;1.00;;;;;;;;5106973;27;45438;-79
2021/09/16 08:42:31;;;;;;;;;2.00;2.00;;;;;;;;5108509;27;45600;-82
2021/09/16 08:44:56;;;;;;;;;1.50;1.50;;;;;;;;5110963;27;45341;-80
2021/09/16 08:47:24;;;;;;;;;0.50;0.25;;;;;;;;5110477;27;46122;-79
2021/09/16 08:49:49;;;;;;;;;2.00;1.75;;;;;;;;5104769;27;45692;-78
2021/09/16 08:52:15;;;;;;;;;2.00;1.00;;;;;;;;5109631;27;45377;-80
2021/09/16 08:54:41;;;;;;;;;2.00;1.00;;;;;;;;5109332;27;45603;-79
2021/09/16 08:57:12;;;;;;;;;3.00;3.00;;;;;;;;5104399;27;46467;-80
2021/09/16 08:59:37;;;;;;;;;3.00;2.00;;;;;;;;5097496;27;45658;-79
2021/09/16 09:02:02;;;;;;;;;1.25;1.25;;;;;;;;5095290;27;45444;-80
2021/09/16 09:04:28;;;;;;;;;2.50;1.00;;;;;;;;5087750;27;45326;-79
2021/09/16 09:07:00;;;;;;;;;2.33;2.33;;;;;;;;5086786;27;45593;-82
2021/09/16 09:09:25;;;;;;;;;3.00;3.00;;;;;;;;5094301;27;45668;-79
2021/09/16 09:11:56;;;;;;;;;2.00;2.00;;;;;;;;5098025;27;46646;-80
2021/09/16 09:14:32;;;;;;;;;3.00;1.75;;;;;;;;5096570;27;45627;-79
2021/09/16 09:16:58;;;;;;;;;3.00;3.00;;;;;;;;5095736;27;46068;-80
2021/09/16 09:19:25;;;;;;;;;3.00;1.75;;;;;;;;5102011;27;45592;-80
2021/09/16 09:21:50;;;;;;;;;3.00;3.00;;;;;;;;5098964;27;45456;-78
2021/09/16 09:24:34;;;;;;;;;6.00;3.50;;;;;;;;5088923;27;45599;-79
2021/09/16 09:27:00;;;;;;;;;4.50;3.75;;;;;;;;5095138;27;46040;-80
2021/09/16 09:29:25;;;;;;;;;4.75;3.00;;;;;;;;5081787;27;46313;-81
2021/09/16 09:31:53;;;;;;;;;3.00;3.00;;;;;;;;5088833;27;45418;-80
2021/09/16 09:34:23;;;;;;;;;1.75;1.75;;;;;;;;5087393;27;45322;-80
2021/09/16 09:36:49;;;;;;;;;1.00;1.00;;;;;;;;5089947;27;45343;-80
2021/09/16 09:39:14;;;;;;;;;10.25;7.50;;;;;;;;5080951;27;45466;-70
2021/09/16 09:41:40;;;;;;;;;6.50;5.00;;;;;;;;5087239;27;45445;-70
2021/09/16 09:44:12;;;;;;;;;4.00;4.00;;;;;;;;5087928;27;45589;-70
2021/09/16 09:46:48;;;;;;;;;5.00;3.00;;;;;;;;5091298;27;45594;-70
2021/09/16 09:49:15;;;;;;;;;3.00;3.00;;;;;;;;5091024;27;45638;-70
2021/09/16 09:51:41;;;;;;;;;3.50;2.50;;;;;;;;5090354;27;45407;-70
2021/09/16 09:54:13;;;;;;;;;2.33;2.33;;;;;;;;5085397;27;45433;-69
2021/09/16 09:56:38;;;;;;;;;4.50;3.00;;;;;;;;5085164;27;45735;-68
2021/09/16 09:59:03;;;;;;;;;5.50;3.00;;;;;;;;5088194;27;45507;-69
2021/09/16 10:01:33;;;;;;;;;3.00;3.00;;;;;;;;5087422;27;46044;-68
2021/09/16 10:03:59;;;;;;;;;2.75;2.75;;;;;;;;5089262;27;45378;-69
2021/09/16 10:06:34;;;;;;;;;2.75;2.75;;;;;;;;5087473;27;46902;-68
2021/09/16 10:09:08;;;;;;;;;5.00;3.00;;;;;;;;5085145;27;45830;-68
2021/09/16 10:11:37;;;;;;;;;3.00;2.75;;;;;;;;5086088;27;45491;-69
2021/09/16 10:14:02;;;;;;;;;2.75;2.75;;;;;;;;5084920;27;45591;-72
2021/09/16 10:16:30;;;;;;;;;2.00;2.00;;;;;;;;5086166;27;45613;-72
2021/09/16 10:18:55;;;;;;;;;2.00;2.00;;;;;;;;5090226;27;45503;-72
2021/09/16 10:21:21;;;;;;;;;2.50;2.50;;;;;;;;5076320;27;45552;-72
2021/09/16 10:23:47;;;;;;;;;4.75;3.25;;;;;;;;5072227;27;45781;-71
2021/09/16 10:26:29;;;;;;;;;1.00;1.00;;;;;;;;5077631;27;45577;-71
2021/09/16 10:28:54;;;;;;;;;3.00;3.00;;;;;;;;5086590;27;45758;-72
2021/09/16 10:31:20;;;;;;;;;3.25;2.75;;;;;;;;5086868;27;45520;-72
2021/09/16 10:33:46;;;;;;;;;4.75;3.50;;;;;;;;5088386;27;45480;-72
2021/09/16 10:36:13;;;;;;;;;3.25;3.25;;;;;;;;5091803;27;45551;-72
2021/09/16 10:38:39;;;;;;;;;4.00;3.25;;;;;;;;5087901;27;45803;-71
2021/09/16 10:41:17;;;;;;;;;5.75;3.50;;;;;;;;5087649;27;45407;-72
2021/09/16 10:43:43;;;;;;;;;4.00;4.00;;;;;;;;5091518;27;45426;-71
2021/09/16 10:46:22;;;;;;;;;3.00;3.00;;;;;;;;5092366;27;47349;-71
2021/09/16 10:48:48;;;;;;;;;2.25;2.25;;;;;;;;5085609;27;45705;-70
2021/09/16 10:51:13;;;;;;;;;3.50;3.50;;;;;;;;5086011;27;49762;-72
2021/09/16 10:53:41;;;;;;;;;3.25;3.25;;;;;;;;5086008;27;45618;-72
2021/09/16 10:56:25;;;;;;;;;4.25;3.25;;;;;;;;5085301;27;52520;-71
2021/09/16 10:58:51;;;;;;;;;2.50;2.50;;;;;;;;5088020;27;45357;-70
2021/09/16 11:01:36;;;;;;;;;6.75;4.00;;;;;;;;5092543;27;45572;-72
2021/09/16 11:04:01;;;;;;;;;2.00;2.00;;;;;;;;5090847;27;45501;-70
2021/09/16 11:06:45;;;;;;;;;4.00;2.00;;;;;;;;5090306;27;45731;-72
2021/09/16 11:09:12;;;;;;;;;2.00;2.00;;;;;;;;5089404;27;45585;-70
2021/09/16 11:11:47;;;;;;;;;4.00;4.00;;;;;;;;5087375;27;46019;-68
2021/09/16 11:14:23;;;;;;;;;3.25;3.25;;;;;;;;5078724;27;45525;-69
2021/09/16 11:16:53;;;;;;;;;2.00;2.00;;;;;;;;5074095;27;46138;-65
2021/09/16 11:19:18;;;;;;;;;2.00;2.00;;;;;;;;5074318;27;45690;-67
2021/09/16 11:21:43;;;;;;;;;3.75;3.75;;;;;;;;5081916;27;45509;-65
2021/09/16 11:24:08;;;;;;;;;3.75;3.75;;;;;;;;5081827;27;45449;-67
2021/09/16 11:26:34;;;;;;;;;5.50;5.25;;;;;;;;5082253;27;46273;-67
2021/09/16 11:29:01;;;;;;;;;4.75;3.00;;;;;;;;5086969;27;45397;-67
2021/09/16 11:31:26;;;;;;;;;3.75;2.75;;;;;;;;5085646;27;45417;-65
2021/09/16 11:34:04;;;;;;;;;4.50;3.00;;;;;;;;5087956;27;45354;-67
2021/09/16 11:36:30;;;;;;;;;2.00;2.00;;;;;;;;5081430;27;45469;-67
2021/09/16 11:39:14;;;;;;;;;3.00;3.00;;;;;;;;5087731;27;45730;-67
2021/09/16 11:41:39;;;;;;;;;1.00;1.00;;;;;;;;5076723;27;45987;-67
2021/09/16 11:44:09;;;;;;;;;3.25;3.25;;;;;;;;5086346;27;45654;-67
2021/09/16 11:46:34;;;;;;;;;3.00;3.00;;;;;;;;5096445;27;45622;-66
2021/09/16 11:49:03;;;;;;;;;2.00;2.00;;;;;;;;5090371;27;45612;-67
2021/09/16 11:51:29;;;;;;;;;3.00;3.00;;;;;;;;5080432;27;45683;-74
2021/09/16 11:53:54;;;;;;;;;3.00;3.00;;;;;;;;5085198;27;49794;-75
2021/09/16 11:56:19;;;;;;;;;2.25;2.25;;;;;;;;5076339;27;46003;-74
2021/09/16 11:58:45;;;;;;;;;4.67;3.00;;;;;;;;5079910;27;45433;-75
2021/09/16 12:01:10;;;;;;;;;4.25;2.25;;;;;;;;5092519;27;45478;-74
2021/09/16 12:03:39;;;;;;;;;3.00;2.00;;;;;;;;5082867;27;45565;-73
2021/09/16 12:06:06;;;;;;;;;4.25;3.50;;;;;;;;5082323;27;45535;-74
2021/09/16 12:08:32;;;;;;;;;1.00;1.00;;;;;;;;5086414;27;45694;-73
2021/09/16 12:10:57;;;;;;;;;1.50;1.50;;;;;;;;5087058;27;46972;-74
2021/09/16 12:13:25;;;;;;;;;3.00;3.00;;;;;;;;5103758;27;45468;-74
2021/09/16 12:15:53;;;;;;;;;3.25;3.00;;;;;;;;5087267;27;46879;-74
2021/09/16 12:18:18;;;;;;;;;2.00;2.00;;;;;;;;5083580;27;45749;-74
2021/09/16 12:20:45;;;;;;;;;3.00;3.00;;;;;;;;5085206;27;45535;-75
2021/09/16 12:23:11;;;;;;;;;1.00;1.00;;;;;;;;5075144;27;45444;-74
2021/09/16 12:25:47;;;;;;;;;2.00;2.00;;;;;;;;5086539;27;45672;-74
2021/09/16 12:28:12;;;;;;;;;3.50;3.50;;;;;;;;5085765;27;45651;-74
2021/09/16 12:30:38;;;;;;;;;2.50;2.00;;;;;;;;5083863;27;46131;-74
2021/09/16 12:33:23;;;;;;;;;3.00;3.00;;;;;;;;5078682;27;45489;-74
2021/09/16 12:36:05;;;;;;;;;2.75;2.75;;;;;;;;5079171;27;46498;-74
2021/09/16 12:38:36;;;;;;;;;2.75;2.75;;;;;;;;5089374;27;45798;-75
2021/09/16 12:41:18;;;;;;;;;2.00;2.00;;;;;;;;5084745;27;45459;-72
2021/09/16 12:43:44;;;;;;;;;1.50;1.25;;;;;;;;5076197;27;45744;-73
2021/09/16 12:46:16;;;;;;;;;3.00;3.00;;;;;;;;5092897;27;45448;-74
2021/09/16 12:48:42;;;;;;;;;2.25;2.25;;;;;;;;5075134;27;45783;-74
2021/09/16 12:51:08;;;;;;;;;3.25;2.00;;;;;;;;5085514;27;45701;-75
2021/09/16 12:53:40;;;;;;;;;2.00;2.00;;;;;;;;5088258;27;45490;-74
2021/09/16 12:56:09;;;;;;;;;3.25;2.00;;;;;;;;5085027;27;45450;-75
2021/09/16 12:58:34;;;;;;;;;1.00;1.00;;;;;;;;5089749;27;45470;-74
2021/09/16 13:01:03;;;;;;;;;2.00;2.00;;;;;;;;5088260;27;45416;-74
2021/09/16 13:03:28;;;;;;;;;4.00;3.25;;;;;;;;5088059;27;45619;-73
2021/09/16 13:06:07;;;;;;;;;2.00;2.00;;;;;;;;5085725;27;46073;-74
2021/09/16 13:08:38;;;;;;;;;3.00;3.00;;;;;;;;5081805;27;45404;-74
2021/09/16 13:11:17;;;;;;;;;2.00;2.00;;;;;;;;5087241;27;45629;-73
2021/09/16 13:13:42;;;;;;;;;4.75;3.50;;;;;;;;5091244;27;45442;-74
2021/09/16 13:16:09;;;;;;;;;3.00;3.00;;;;;;;;5094217;27;46025;-73
2021/09/16 13:18:35;;;;;;;;;2.75;2.75;;;;;;;;5085010;27;45436;-75
2021/09/16 13:21:00;;;;;;;;;3.00;3.00;;;;;;;;5085351;27;45370;-74
2021/09/16 13:23:26;;;;;;;;;3.00;2.00;;;;;;;;5089423;27;45519;-75
2021/09/16 13:25:52;;;;;;;;;2.00;2.00;;;;;;;;5087110;27;46156;-75
2021/09/16 13:28:18;;;;;;;;;1.25;1.25;;;;;;;;5091199;27;45700;-74
2021/09/16 13:30:43;;;;;;;;;3.50;2.00;;;;;;;;5088951;27;45567;-75
2021/09/16 13:33:09;;;;;;;;;1.50;1.50;;;;;;;;5081471;27;45769;-74
2021/09/16 13:35:35;;;;;;;;;2.50;2.50;;;;;;;;5088183;27;46066;-74
2021/09/16 13:38:00;;;;;;;;;2.00;2.00;;;;;;;;5089533;27;45445;-74
2021/09/16 13:40:26;;;;;;;;;2.00;2.00;;;;;;;;5092111;27;45576;-74
2021/09/16 13:42:51;;;;;;;;;3.25;2.00;;;;;;;;5089761;27;45618;-74
2021/09/16 13:45:18;;;;;;;;;2.00;2.00;;;;;;;;5084882;27;52074;-75
2021/09/16 13:47:45;;;;;;;;;2.50;2.50;;;;;;;;5086667;27;46052;-74
2021/09/16 13:50:10;;;;;;;;;3.75;3.00;;;;;;;;5087203;27;45437;-74
2021/09/16 13:52:35;;;;;;;;;2.50;2.00;;;;;;;;5090218;27;45472;-74
2021/09/16 13:55:01;;;;;;;;;2.50;1.50;;;;;;;;5088186;27;45481;-74
2021/09/16 13:57:26;;;;;;;;;3.00;3.00;;;;;;;;5081051;27;45532;-73
2021/09/16 13:59:51;;;;;;;;;4.50;3.00;;;;;;;;5085763;27;45485;-74
2021/09/16 14:02:18;;;;;;;;;4.25;2.25;;;;;;;;5080903;27;53859;-73
2021/09/16 14:04:43;;;;;;;;;1.50;1.50;;;;;;;;5089364;27;45783;-73
2021/09/16 14:07:08;;;;;;;;;2.25;2.25;;;;;;;;5097108;27;45452;-74
2021/09/16 14:09:33;;;;;;;;;4.00;2.00;;;;;;;;5087567;27;45414;-72
2021/09/16 14:11:59;;;;;;;;;3.00;2.00;;;;;;;;5090712;27;45559;-73
2021/09/16 14:14:24;;;;;;;;;3.00;2.00;;;;;;;;5088855;27;46059;-73
2021/09/16 14:16:49;;;;;;;;;3.00;3.00;;;;;;;;5086395;27;46460;-73
2021/09/16 14:19:15;;;;;;;;;2.00;2.00;;;;;;;;5089305;27;45448;-73
2021/09/16 14:21:41;;;;;;;;;1.25;1.25;;;;;;;;5082305;27;45442;-73
2021/09/16 14:24:07;;;;;;;;;3.25;2.50;;;;;;;;5083056;27;45657;-73
2021/09/16 14:26:33;;;;;;;;;2.25;2.00;;;;;;;;5086349;27;45562;-77
2021/09/16 14:28:58;;;;;;;;;1.75;1.75;;;;;;;;5078791;27;45481;-77
2021/09/16 14:31:24;;;;;;;;;2.50;1.00;;;;;;;;5091140;27;46562;-79
2021/09/16 14:33:49;;;;;;;;;5.25;1.75;;;;;;;;5092380;27;46488;-81
2021/09/16 14:36:15;;;;;;;;;1.75;1.75;;;;;;;;5085246;27;45539;-78
2021/09/16 14:38:41;;;;;;;;;2.25;2.25;;;;;;;;5087777;27;45521;-79
2021/09/16 14:41:06;;;;;;;;;4.25;2.50;;;;;;;;5086972;27;45780;-78
2021/09/16 14:43:32;;;;;;;;;1.00;1.00;;;;;;;;5089572;27;45532;-74
2021/09/16 14:45:57;;;;;;;;;0.75;0.75;;;;;;;;5089524;27;45537;-74
2021/09/16 14:48:22;;;;;;;;;1.50;1.50;;;;;;;;5084836;27;45671;-73
2021/09/16 14:50:48;;;;;;;;;2.00;2.00;;;;;;;;5085218;27;45454;-73